• Join FlightAware (Why Join?)
  • Login
  • US Flag 
Trick or treat! (Boo!!) 
04:18PM EDT


 

Airport Tracker/Info


-or-


 

Live Flight TrackerFlight Track Log ✈ ASH1014 ✈ 25-Apr-2011 ✈ PHOG / OGG - PHNL

Flight Track Log - Related Links

Times and Time Zones

All times are in EDT time to prevent confusion due to time zone crossing. See the ASH1014 flight status page for this flight to view local times or setup timezone preferences in your user account.

Time Position Orientation Groundspeed Altitude Reporting Facility
EDT Latitude Longitude Course Direction KTS MPH feet Rate Location/Type
10:47PM 20.9000 -156.4167 343° North 160 184 1,000  Level Honolulu Center
10:48PM 20.9500 -156.4333 317° Northwest 210 242 3,500 2,400 Climbing Honolulu Center
10:49PM 21.0000 -156.4833 317° Northwest 240 276 5,900 2,340 Climbing Honolulu Center
10:50PM 21.0500 -156.5333 270° West 280 322 8,300 2,340 Climbing Honolulu Center
10:51PM 21.0500 -156.6167 260° West 290 334 10,700 2,400 Climbing Honolulu Center
10:52PM 21.0333 -156.7167 270° West 300 345 13,100 1,740 Climbing Honolulu Center
10:53PM 21.0333 -156.8000 261° West 330 380 14,300 1,020 Climbing Honolulu Center
10:54PM 21.0167 -156.9167 260° West 370 426 15,200 840 Climbing Honolulu Center
10:55PM 21.0000 -157.0167 257° West 400 460 16,000 360 Climbing Honolulu Center
10:56PM 20.9667 -157.1667 261° West 420 483 16,000  Level Honolulu Center
10:57PM 20.9500 -157.2833 261° West 430 495 16,000  Level Honolulu Center
10:58PM 20.9333 -157.4000 270° West 410 472 16,000 -1,020 Level Honolulu Center
10:59PM 20.9333 -157.5000 290° West 340 391 14,000 -2,340 Descending Honolulu Center
11:00PM 20.9667 -157.6000 293° West 330 380 11,400 -2,400 Descending Honolulu Center
11:01PM 21.0000 -157.6833 293° West 300 345 9,300 -2,100 Descending Honolulu Center
11:02PM 21.0333 -157.7667 285° West 290 334 7,300 -2,040 Descending Honolulu Center
11:03PM 21.0500 -157.8333 285° West 250 288 5,300 -1,740 Descending Honolulu Center
11:05PM 21.0667 -157.9000 298° West 230 265 3,800 -1,200 Descending Honolulu Center
11:06PM 21.1000 -157.9667 290° West 190 219 2,900 -1,020 Descending Honolulu Center
11:07PM 21.1167 -158.0167 290° West 180 207 1,800 -1,140 Descending Honolulu Center